Back to Top
Banner_Quays_at_Mast_2020.jpeg
Banner_VERITY.jpeg
Banner_P42_Kinsale_2004.jpeg
Superyacht_SCOUT.jpg
Kinsale_Trawlers_Banner.jpeg
previous arrow
next arrow

Port Arrivals Report (AIS)

This report is generated from collected AIS (Automated Identification System) signals from vessels entering port.

IMO MMSI Class Flag Vessel Name Vessel type Nav Status Destination Call Sign Latitude Longitude Speed (kts) Course (T) Draught (m) LOA (m) Beam (m) Timestamp
0 250003953 B IE ALICE AGAIN FISHING. - EI8857 51.6884 -8.49747 7 332.9 0 10 4 2024-06-11 14:26:46
0 232026696 B GB - - 51.6888 -8.50004 4.4 345.6 0 0 0 2024-06-11 14:22:21
0 368315790 B US OSO SAILING. - WDN8251 51.6885 -8.5001 5.4 342.3 0 17 5 2024-06-11 13:26:49
0 227961010 B FR KALIMOTXO SAILING. - FAG6577 51.6875 -8.49882 3.6 353.6 0 11 4 2024-06-11 13:21:29
0 250005517 B IE HAFOD Pleasure craft - EI-VE-3 51.6874 -8.49891 4.5 355.7 0 10 3 2024-06-11 13:11:14
0 227528490 B FR KENAVO 3 SAILING. - FS2139 51.6876 -8.497 2.6 7.8 0 11 4 2024-06-11 11:04:30
0 261186164 B PL LEONTINA SAILING. - SR6164 51.6874 -8.4982 5.9 353.9 0 15 5 2024-06-10 20:04:37
0 205355300 B BE MAKAIRA SAILING. - OS3553 51.6878 -8.49851 6 356.3 0 9 2 2024-06-10 17:41:53
0 228111970 B FR SACY SAILING. - FAJ5611 51.6879 -8.49863 5.2 356 0 0 0 2024-06-10 17:12:57
0 250003953 B IE ALICE AGAIN FISHING. - EI8857 51.688 -8.49741 6.7 335.7 0 10 4 2024-06-10 14:02:06
0 235032485 B GB SAILING. - MBMF2 51.6872 -8.49957 4.7 2.9 0 10 4 2024-06-10 13:35:24
0 235025138 B GB PINSTRIPE OF PENRYN SAILING. - MHLV5 51.6885 -8.49972 6.4 1.6 0 12 4 2024-06-10 13:32:18
0 235065557 B GB KEMOSABE SAILING. - 2BEY3 51.6871 -8.49875 5.4 14.9 0 11 3 2024-06-09 17:38:54
0 250006611 B IE HENDRICKS SAILING. - EI-ZP-8 51.6889 -8.50003 5.9 346 0 14 4 2024-06-09 17:18:30
0 232052286 B GB OLD FASHIONED Pleasure craft - MOPM3 51.6873 -8.49954 5.3 334.7 0 11 4 2024-06-09 15:59:22
0 250005288 B IE LE VIV SAILING. - EI UK 2 51.6874 -8.49978 5.2 353.2 0 0 0 2024-06-09 14:53:52
0 235099688 B GB MOONRAKER SAILING. - 2GQO6 51.6881 -8.50063 3.7 356.4 0 13 4 2024-06-09 13:04:42
0 250002369 B IE JAVA SAILING. - EILA2 51.6876 -8.49899 3.5 13.3 0 11 4 2024-06-09 12:46:21
0 250005937 B IE CINNAMON GIRL Pleasure craft - EI WU 2 51.6882 -8.49905 6.3 351.5 0 10 3 2024-06-09 11:21:04
0 250005937 B IE CINNAMON GIRL Pleasure craft - EI WU 2 51.6874 -8.49943 3.9 357.7 0 10 3 2024-06-09 10:37:25